Time;durP1;ratioP1;P1;durP2;ratioP2;P2;SDS_P1;SDS_P2;PMS_P1;PMS_P2;Temp;Humidity;BMP_temperature;BMP_pressure;BME280_temperature;BME280_humidity;BME280_pressure;Samples;Min_cycle;Max_cycle;Signal;HPM_P1;HPM_P2
2021/11/26 00:02:26;;;;;;;23.38;11.63;;;2.60;83.50;;;;;;5066006;28;20095;-76
2021/11/26 00:04:53;;;;;;;17.95;9.85;;;2.60;83.60;;;;;;5077214;28;20025;-76
2021/11/26 00:07:19;;;;;;;18.52;9.80;;;2.70;83.80;;;;;;5076735;28;20475;-76
2021/11/26 00:09:47;;;;;;;18.02;9.73;;;2.70;83.60;;;;;;5078581;28;20024;-76
2021/11/26 00:12:13;;;;;;;15.40;8.65;;;2.80;83.60;;;;;;5078093;28;20029;-76
2021/11/26 00:15:16;;;;;;;16.25;8.55;;;2.80;83.40;;;;;;5068106;28;20116;-76
2021/11/26 00:17:34;;;;;;;17.35;8.98;;;2.80;84.20;;;;;;5066331;28;20036;-76
2021/11/26 00:20:00;;;;;;;14.82;6.95;;;2.90;85.40;;;;;;5075941;28;20027;-76
2021/11/26 00:22:26;;;;;;;17.45;9.45;;;3.00;85.70;;;;;;5076640;28;20384;-76
2021/11/26 00:24:53;;;;;;;16.77;6.95;;;3.10;86.10;;;;;;5093444;28;20025;-76
2021/11/26 00:27:19;;;;;;;13.38;6.53;;;3.10;86.80;;;;;;5078393;28;20081;-76
2021/11/26 00:29:45;;;;;;;13.43;6.30;;;3.20;87.20;;;;;;5078114;28;20480;-76
2021/11/26 00:32:11;;;;;;;13.10;6.10;;;3.20;87.30;;;;;;5078181;28;20035;-76
2021/11/26 00:34:37;;;;;;;10.98;5.78;;;3.30;87.40;;;;;;5076476;28;20107;-76
2021/11/26 00:37:04;;;;;;;15.43;6.50;;;3.30;87.50;;;;;;5077611;28;20032;-78
2021/11/26 00:39:30;;;;;;;11.88;6.13;;;3.30;87.60;;;;;;5077562;28;20050;-76
2021/11/26 00:41:56;;;;;;;9.52;5.10;;;3.30;87.90;;;;;;5078007;28;20475;-75
2021/11/26 00:44:22;;;;;;;15.82;5.85;;;3.30;87.70;;;;;;5077736;28;20056;-76
2021/11/26 00:46:48;;;;;;;10.85;5.13;;;3.30;87.70;;;;;;5077882;28;20492;-76
2021/11/26 00:49:14;;;;;;;10.68;4.72;;;3.40;88.30;;;;;;5077573;28;20097;-76
2021/11/26 00:51:40;;;;;;;18.13;5.38;;;3.30;88.50;;;;;;5076712;28;20024;-76
2021/11/26 00:54:06;;;;;;;9.40;4.85;;;3.30;88.10;;;;;;5076889;28;20066;-76
2021/11/26 00:56:31;;;;;;;9.98;5.03;;;3.30;88.10;;;;;;5077685;28;20024;-76
2021/11/26 00:58:57;;;;;;;9.73;4.85;;;3.30;87.90;;;;;;5077378;28;20033;-76
2021/11/26 01:01:23;;;;;;;10.38;4.63;;;3.30;87.80;;;;;;5075073;28;20368;-76
2021/11/26 01:03:49;;;;;;;11.20;4.88;;;3.30;87.50;;;;;;5077576;28;20024;-76
2021/11/26 01:06:15;;;;;;;9.48;5.50;;;3.30;86.90;;;;;;5077602;28;20016;-76
2021/11/26 01:08:40;;;;;;;11.25;4.85;;;3.20;86.70;;;;;;5075586;28;20028;-76
2021/11/26 01:11:07;;;;;;;9.10;4.90;;;3.30;87.30;;;;;;5076211;28;20025;-76
2021/11/26 01:13:33;;;;;;;11.18;4.70;;;3.20;87.10;;;;;;5074878;28;20040;-76
2021/11/26 01:15:59;;;;;;;8.43;4.20;;;3.30;87.70;;;;;;5067128;28;21126;-76
2021/11/26 01:18:25;;;;;;;11.43;4.82;;;3.20;87.10;;;;;;5077245;28;20055;-76
2021/11/26 01:20:51;;;;;;;14.77;5.28;;;3.20;87.00;;;;;;5076061;28;20024;-76
2021/11/26 01:23:17;;;;;;;11.45;5.00;;;3.20;87.20;;;;;;5074664;28;20028;-76
2021/11/26 01:25:43;;;;;;;9.07;4.80;;;3.20;87.70;;;;;;5077293;28;20021;-76
2021/11/26 01:28:10;;;;;;;9.85;4.93;;;3.20;88.20;;;;;;5075775;28;20017;-76
2021/11/26 01:30:40;;;;;;;7.30;4.28;;;3.20;88.20;;;;;;5077162;28;20050;-76
2021/11/26 01:33:10;;;;;;;14.50;5.50;;;3.20;87.50;;;;;;5077097;28;20037;-76
2021/11/26 01:35:38;;;;;;;11.52;5.20;;;3.30;87.90;;;;;;5076347;28;20028;-76
2021/11/26 01:38:05;;;;;;;8.70;4.93;;;3.20;88.30;;;;;;5075251;28;20064;-76
2021/11/26 01:40:32;;;;;;;10.50;5.88;;;3.20;88.30;;;;;;5076996;28;20025;-76
2021/11/26 01:42:59;;;;;;;8.27;4.75;;;3.30;88.50;;;;;;5075586;28;20028;-76
2021/11/26 01:45:26;;;;;;;10.02;4.63;;;3.30;88.80;;;;;;5076999;28;20016;-76
2021/11/26 01:47:52;;;;;;;7.32;4.55;;;3.20;87.90;;;;;;5072144;28;20025;-76
2021/11/26 01:50:22;;;;;;;15.77;5.32;;;3.20;87.30;;;;;;5085994;28;20038;-76
2021/11/26 01:52:48;;;;;;;10.07;5.22;;;3.20;87.00;;;;;;5071783;28;20033;-76
2021/11/26 01:55:15;;;;;;;8.30;4.43;;;3.10;87.10;;;;;;5069637;28;20017;-76
2021/11/26 01:57:44;;;;;;;13.07;5.85;;;3.10;87.00;;;;;;5076825;28;20029;-76
2021/11/26 02:00:13;;;;;;;9.90;4.43;;;3.10;87.00;;;;;;5076689;28;20088;-76
2021/11/26 02:02:39;;;;;;;10.43;5.13;;;3.10;87.00;;;;;;5075320;28;20028;-76
2021/11/26 02:05:06;;;;;;;9.48;4.88;;;3.10;87.50;;;;;;5076952;28;20020;-76
2021/11/26 02:07:32;;;;;;;10.63;4.22;;;3.20;88.40;;;;;;5076515;28;20058;-76
2021/11/26 02:09:58;;;;;;;7.13;4.43;;;3.10;88.30;;;;;;5076758;28;20104;-76
2021/11/26 02:12:24;;;;;;;10.25;4.93;;;3.10;87.60;;;;;;5076673;28;20056;-76
2021/11/26 02:14:50;;;;;;;10.55;4.95;;;3.20;87.30;;;;;;5064967;28;20049;-76
2021/11/26 02:17:16;;;;;;;8.05;5.00;;;3.10;86.70;;;;;;5075921;28;20096;-76
2021/11/26 02:19:42;;;;;;;9.88;5.10;;;3.00;86.30;;;;;;5075394;28;20048;-76
2021/11/26 02:22:08;;;;;;;9.68;4.60;;;3.00;86.00;;;;;;5072887;28;20025;-76
2021/11/26 02:24:34;;;;;;;9.15;4.75;;;3.00;85.90;;;;;;5069797;28;20065;-76
2021/11/26 02:27:00;;;;;;;12.27;5.65;;;2.90;85.50;;;;;;5075244;28;20027;-76
2021/11/26 02:29:25;;;;;;;12.05;4.80;;;2.90;85.30;;;;;;5075655;28;20025;-76
2021/11/26 02:31:52;;;;;;;9.13;4.68;;;2.90;85.80;;;;;;5076277;28;20028;-76
2021/11/26 02:34:18;;;;;;;12.10;5.00;;;2.90;85.90;;;;;;5076510;28;20113;-76
2021/11/26 02:36:44;;;;;;;10.93;4.97;;;2.90;86.00;;;;;;5076200;28;20021;-76
2021/11/26 02:39:11;;;;;;;11.57;6.03;;;2.90;86.20;;;;;;5076125;28;20100;-76
2021/11/26 02:41:39;;;;;;;18.77;8.63;;;2.80;85.90;;;;;;5076507;28;20020;-76
2021/11/26 02:44:05;;;;;;;16.13;7.35;;;2.80;86.50;;;;;;5078088;28;20016;-77
2021/11/26 02:46:32;;;;;;;19.92;7.63;;;2.80;86.50;;;;;;5080008;28;20024;-76
2021/11/26 02:48:58;;;;;;;15.35;7.43;;;2.80;86.90;;;;;;5079794;28;20080;-76
2021/11/26 02:51:24;;;;;;;15.95;7.35;;;2.80;86.50;;;;;;5080301;28;20063;-76
2021/11/26 02:53:50;;;;;;;18.08;6.97;;;2.90;86.90;;;;;;5074892;28;20480;-76
2021/11/26 02:56:16;;;;;;;42.45;13.48;;;2.90;86.70;;;;;;5078773;28;20389;-76
2021/11/26 02:58:42;;;;;;;25.98;9.90;;;2.90;86.70;;;;;;5079898;28;20025;-77
2021/11/26 03:01:08;;;;;;;44.67;12.15;;;2.90;87.40;;;;;;5072498;28;20025;-76
2021/11/26 03:03:33;;;;;;;34.58;12.77;;;2.90;87.30;;;;;;5073541;28;20494;-76
2021/11/26 03:06:03;;;;;;;19.50;7.45;;;2.90;87.40;;;;;;5079628;28;20016;-76
2021/11/26 03:08:29;;;;;;;16.75;6.80;;;3.00;88.20;;;;;;5078183;28;20099;-76
2021/11/26 03:10:56;;;;;;;18.50;6.47;;;3.00;88.40;;;;;;5079852;28;20100;-76
2021/11/26 03:13:22;;;;;;;13.55;5.95;;;3.10;88.50;;;;;;5079429;28;20024;-77
2021/11/26 03:15:48;;;;;;;11.25;5.38;;;3.10;88.60;;;;;;5066745;28;20037;-76
2021/11/26 03:18:19;;;;;;;10.45;4.53;;;3.10;88.90;;;;;;5079418;28;20031;-76
2021/11/26 03:20:47;;;;;;;8.30;4.55;;;3.10;88.30;;;;;;5079543;28;20036;-76
2021/11/26 03:23:14;;;;;;;14.52;5.85;;;3.10;87.70;;;;;;5068394;28;20068;-76
2021/11/26 03:25:41;;;;;;;13.82;6.43;;;3.10;87.10;;;;;;5079448;28;20020;-76
2021/11/26 03:28:08;;;;;;;24.92;9.25;;;3.10;86.70;;;;;;5078115;28;20021;-76
2021/11/26 03:30:35;;;;;;;17.13;7.35;;;3.10;86.80;;;;;;5079509;28;20048;-76
2021/11/26 03:33:01;;;;;;;19.50;8.50;;;3.10;86.60;;;;;;5079010;28;20028;-76
2021/11/26 03:35:27;;;;;;;11.93;6.47;;;3.20;86.50;;;;;;5077921;28;20039;-76
2021/11/26 03:37:53;;;;;;;11.93;5.75;;;3.20;87.00;;;;;;5078683;28;20097;-76
2021/11/26 03:40:20;;;;;;;9.73;5.38;;;3.20;86.80;;;;;;5077632;28;20028;-76
2021/11/26 03:42:47;;;;;;;9.73;5.18;;;3.20;86.40;;;;;;5077519;28;20090;-76
2021/11/26 03:45:16;;;;;;;8.75;4.53;;;3.20;86.90;;;;;;5077819;28;20021;-76
2021/11/26 03:47:42;;;;;;;11.18;4.38;;;3.20;87.50;;;;;;5077683;28;20027;-76
2021/11/26 03:50:09;;;;;;;7.47;4.53;;;3.20;87.10;;;;;;5078981;28;20028;-77
2021/11/26 03:52:36;;;;;;;8.02;4.38;;;3.10;86.90;;;;;;5076844;28;20078;-76
2021/11/26 03:55:03;;;;;;;6.80;4.10;;;3.20;87.00;;;;;;5093681;28;20075;-77
2021/11/26 03:57:29;;;;;;;7.43;4.80;;;3.10;87.00;;;;;;5078577;28;20502;-76
2021/11/26 03:59:55;;;;;;;7.70;4.03;;;3.10;87.10;;;;;;5077593;28;20399;-76
2021/11/26 04:02:21;;;;;;;6.85;3.92;;;3.10;87.20;;;;;;5066587;28;20402;-76
2021/11/26 04:04:47;;;;;;;7.28;3.70;;;3.10;87.30;;;;;;5079094;28;20094;-76
2021/11/26 04:07:12;;;;;;;9.30;3.83;;;3.10;87.40;;;;;;5078419;28;20021;-76
2021/11/26 04:09:38;;;;;;;6.32;3.42;;;3.10;87.40;;;;;;5078419;28;20063;-76
2021/11/26 04:12:05;;;;;;;7.50;3.70;;;3.10;86.80;;;;;;5077155;28;20027;-76
2021/11/26 04:14:30;;;;;;;7.53;3.40;;;3.10;86.40;;;;;;5069281;28;20021;-76
2021/11/26 04:16:56;;;;;;;5.78;3.35;;;3.10;86.00;;;;;;5073868;28;20029;-76
2021/11/26 04:19:22;;;;;;;8.48;4.15;;;3.10;85.80;;;;;;5078256;28;20029;-77
2021/11/26 04:21:48;;;;;;;8.05;3.78;;;3.10;85.50;;;;;;5075676;28;20029;-76
2021/11/26 04:24:13;;;;;;;7.72;3.92;;;3.10;86.00;;;;;;5078327;28;20028;-76
2021/11/26 04:26:39;;;;;;;6.60;3.60;;;3.10;86.50;;;;;;5078002;28;20021;-76
2021/11/26 04:29:05;;;;;;;8.20;3.55;;;3.10;86.70;;;;;;5076977;28;20024;-76
2021/11/26 04:31:31;;;;;;;6.28;3.63;;;3.10;87.20;;;;;;5076426;28;20032;-76
2021/11/26 04:33:57;;;;;;;9.05;3.97;;;3.10;87.30;;;;;;5076838;28;20047;-76
2021/11/26 04:36:23;;;;;;;7.13;3.95;;;3.20;87.60;;;;;;5077752;28;20016;-77
2021/11/26 04:38:49;;;;;;;6.05;3.53;;;3.20;87.70;;;;;;5076118;28;20495;-76
2021/11/26 04:41:15;;;;;;;8.80;3.78;;;3.20;87.80;;;;;;5076444;28;20020;-76
2021/11/26 04:43:41;;;;;;;10.50;3.95;;;3.30;87.80;;;;;;5077831;28;20800;-76
2021/11/26 04:46:07;;;;;;;8.68;4.15;;;3.30;88.10;;;;;;5077452;28;20031;-76
2021/11/26 04:48:33;;;;;;;9.63;4.25;;;3.40;88.20;;;;;;5073345;28;20025;-76
2021/11/26 04:50:59;;;;;;;7.35;3.67;;;3.40;88.50;;;;;;5075230;28;20555;-76
2021/11/26 04:53:25;;;;;;;7.00;3.20;;;3.40;88.80;;;;;;5073001;28;20075;-76
2021/11/26 04:55:51;;;;;;;6.05;4.22;;;3.50;88.90;;;;;;5073983;28;20052;-76
2021/11/26 04:58:17;;;;;;;7.40;3.17;;;3.50;88.50;;;;;;5077781;28;20399;-76
2021/11/26 05:00:43;;;;;;;11.45;3.85;;;3.60;87.90;;;;;;5074876;28;20024;-77
2021/11/26 05:03:09;;;;;;;6.18;3.53;;;3.60;88.00;;;;;;5067806;28;20028;-76
2021/11/26 05:05:35;;;;;;;12.00;4.05;;;3.70;87.90;;;;;;5077381;28;20059;-76
2021/11/26 05:08:01;;;;;;;8.02;3.60;;;3.70;87.70;;;;;;5077005;28;20021;-76
2021/11/26 05:10:28;;;;;;;8.18;3.00;;;3.70;87.40;;;;;;5077187;28;20033;-76
2021/11/26 05:12:58;;;;;;;8.23;3.40;;;3.70;87.40;;;;;;5077724;28;20116;-76
2021/11/26 05:15:26;;;;;;;6.45;2.88;;;3.80;87.40;;;;;;5064396;28;20165;-76
2021/11/26 05:17:58;;;;;;;7.28;3.38;;;3.80;87.10;;;;;;5077475;28;20502;-76
2021/11/26 05:20:24;;;;;;;5.53;3.17;;;3.80;87.30;;;;;;5077237;28;20434;-76
2021/11/26 05:22:51;;;;;;;7.35;3.53;;;3.80;87.30;;;;;;5081612;28;20028;-75
2021/11/26 05:25:17;;;;;;;6.88;3.08;;;3.90;87.50;;;;;;5077283;28;20024;-77
2021/11/26 05:27:43;;;;;;;5.88;2.72;;;3.90;87.80;;;;;;5077532;28;20046;-75
2021/11/26 05:30:10;;;;;;;8.27;3.00;;;3.90;87.50;;;;;;5076860;28;20020;-74
2021/11/26 05:32:37;;;;;;;12.00;3.08;;;4.00;88.00;;;;;;5076854;28;20033;-75
2021/11/26 05:35:08;;;;;;;6.18;2.90;;;4.00;88.00;;;;;;5077087;28;20020;-75
2021/11/26 05:37:34;;;;;;;8.85;2.85;;;4.10;88.10;;;;;;5076988;28;20045;-75
2021/11/26 05:40:00;;;;;;;8.73;3.03;;;4.10;88.10;;;;;;5076791;28;20507;-73
2021/11/26 05:42:25;;;;;;;5.70;2.80;;;4.10;87.80;;;;;;5077239;28;20131;-73
2021/11/26 05:44:51;;;;;;;5.18;2.70;;;4.10;87.80;;;;;;5077097;28;20024;-73
2021/11/26 05:47:17;;;;;;;7.95;3.00;;;4.20;88.00;;;;;;5076972;28;20108;-73
2021/11/26 05:49:43;;;;;;;7.15;2.75;;;4.20;87.70;;;;;;5076849;28;20025;-73
2021/11/26 05:52:09;;;;;;;7.68;2.88;;;4.20;87.70;;;;;;5076721;28;20039;-73
2021/11/26 05:54:36;;;;;;;5.97;2.85;;;4.30;87.70;;;;;;5076661;28;20020;-73
2021/11/26 05:57:03;;;;;;;7.10;2.65;;;4.30;87.60;;;;;;5075620;28;20369;-73
2021/11/26 05:59:30;;;;;;;7.95;2.80;;;4.30;87.10;;;;;;5076081;28;20094;-74
2021/11/26 06:01:59;;;;;;;5.85;2.78;;;4.30;86.80;;;;;;5063440;28;20025;-71
2021/11/26 06:04:27;;;;;;;7.70;3.20;;;4.30;86.70;;;;;;5077305;28;20046;-72
2021/11/26 06:06:52;;;;;;;11.13;3.80;;;4.30;86.80;;;;;;5076705;28;20074;-76
2021/11/26 06:09:18;;;;;;;8.82;2.95;;;4.40;86.90;;;;;;5076941;28;20099;-76
2021/11/26 06:11:44;;;;;;;6.55;3.65;;;4.40;87.10;;;;;;5076852;28;20472;-76
2021/11/26 06:14:10;;;;;;;7.25;3.42;;;4.40;87.20;;;;;;5070423;28;20021;-75
2021/11/26 06:16:36;;;;;;;5.88;2.95;;;4.40;87.10;;;;;;5069911;28;20025;-76
2021/11/26 06:19:02;;;;;;;5.43;2.92;;;4.40;87.10;;;;;;5065433;28;20054;-71
2021/11/26 06:21:27;;;;;;;6.82;3.25;;;4.50;87.40;;;;;;5080431;28;20021;-72
2021/11/26 06:23:53;;;;;;;9.73;3.47;;;4.60;87.40;;;;;;5079219;28;20031;-71
2021/11/26 06:26:19;;;;;;;10.23;3.40;;;4.60;87.50;;;;;;5080550;28;20413;-72
2021/11/26 06:28:45;;;;;;;6.70;3.10;;;4.60;87.20;;;;;;5080834;28;20029;-75
2021/11/26 06:31:11;;;;;;;11.27;3.15;;;4.70;87.10;;;;;;5080642;28;20357;-73
2021/11/26 06:33:37;;;;;;;8.38;4.80;;;4.70;87.20;;;;;;5080376;28;20031;-72
2021/11/26 06:36:03;;;;;;;7.20;4.05;;;4.70;87.10;;;;;;5079035;28;20035;-75
2021/11/26 06:38:29;;;;;;;6.68;4.05;;;4.80;87.00;;;;;;5078674;28;20135;-74
2021/11/26 06:40:54;;;;;;;10.48;3.17;;;4.70;86.70;;;;;;5079990;28;20059;-72
2021/11/26 06:43:20;;;;;;;7.82;2.88;;;4.80;87.00;;;;;;5080448;28;20020;-73
2021/11/26 06:45:46;;;;;;;7.03;3.58;;;4.80;86.80;;;;;;5080060;28;20024;-74
2021/11/26 06:48:12;;;;;;;9.93;3.70;;;4.80;87.10;;;;;;5080232;28;20491;-74
2021/11/26 06:50:38;;;;;;;8.85;3.58;;;4.90;87.10;;;;;;5079917;28;20082;-75
2021/11/26 06:53:05;;;;;;;8.25;3.58;;;4.90;87.10;;;;;;5079892;28;20077;-75
2021/11/26 06:55:31;;;;;;;12.80;3.90;;;4.90;87.30;;;;;;5079761;28;20067;-76
2021/11/26 06:57:57;;;;;;;7.95;3.47;;;4.90;87.50;;;;;;5080140;28;20031;-75
2021/11/26 07:00:23;;;;;;;6.80;3.00;;;4.90;87.50;;;;;;5079728;28;20024;-74
2021/11/26 07:02:49;;;;;;;7.57;2.95;;;4.90;87.60;;;;;;5078589;28;20386;-73
2021/11/26 07:05:15;;;;;;;9.25;3.35;;;4.80;87.60;;;;;;5079858;28;20429;-74
2021/11/26 07:07:41;;;;;;;11.63;4.47;;;4.90;87.90;;;;;;5079647;28;20020;-74
2021/11/26 07:10:09;;;;;;;11.63;3.90;;;4.80;87.90;;;;;;5079512;28;20032;-75
2021/11/26 07:12:36;;;;;;;8.93;3.47;;;4.80;88.00;;;;;;5079476;28;20483;-74
2021/11/26 07:15:04;;;;;;;8.95;3.10;;;4.90;88.30;;;;;;5065401;28;20032;-74
2021/11/26 07:17:30;;;;;;;8.98;3.72;;;4.90;88.60;;;;;;5078826;28;20020;-76
2021/11/26 07:19:56;;;;;;;6.15;2.78;;;4.80;88.50;;;;;;5079263;28;20078;-75
2021/11/26 07:22:22;;;;;;;6.80;2.92;;;4.90;88.60;;;;;;5076339;28;20021;-74
2021/11/26 07:24:48;;;;;;;5.18;2.90;;;4.90;88.90;;;;;;5078929;28;20023;-74
2021/11/26 07:27:14;;;;;;;7.75;2.70;;;4.80;88.80;;;;;;5077675;28;20495;-74
2021/11/26 07:29:40;;;;;;;6.65;2.67;;;4.90;89.20;;;;;;5078519;28;20024;-74
2021/11/26 07:32:06;;;;;;;7.28;2.35;;;4.90;89.30;;;;;;5079121;28;20035;-73
2021/11/26 07:34:32;;;;;;;19.67;8.93;;;4.90;89.30;;;;;;5077700;28;20032;-74
2021/11/26 07:36:58;;;;;;;10.10;4.53;;;4.90;89.10;;;;;;5078530;28;20104;-74
2021/11/26 07:39:31;;;;;;;8.38;2.55;;;4.90;89.10;;;;;;5077334;28;20076;-73
2021/11/26 07:41:57;;;;;;;8.48;2.90;;;5.00;89.30;;;;;;5077565;28;20025;-74
2021/11/26 07:44:23;;;;;;;8.35;2.88;;;5.00;89.30;;;;;;5078725;28;20056;-74
2021/11/26 07:46:49;;;;;;;11.25;3.10;;;5.00;89.10;;;;;;5079101;28;20016;-74
2021/11/26 07:49:15;;;;;;;6.80;2.50;;;5.00;89.30;;;;;;5077988;28;20031;-74
2021/11/26 07:51:41;;;;;;;4.75;2.28;;;5.00;89.10;;;;;;5078097;28;20032;-75
2021/11/26 07:54:06;;;;;;;5.97;2.17;;;5.00;89.20;;;;;;5078101;28;20109;-75
2021/11/26 07:56:35;;;;;;;6.63;2.35;;;5.00;89.20;;;;;;5078483;28;20020;-75
2021/11/26 07:59:02;;;;;;;3.55;2.00;;;5.10;89.70;;;;;;5078174;28;20471;-74
2021/11/26 08:01:28;;;;;;;7.85;1.88;;;5.10;89.80;;;;;;5078635;28;20024;-74
2021/11/26 08:03:54;;;;;;;6.82;2.50;;;5.10;89.90;;;;;;5076657;28;20047;-74
2021/11/26 08:06:20;;;;;;;10.82;3.63;;;5.30;90.10;;;;;;5078271;28;20028;-75
2021/11/26 08:08:46;;;;;;;6.40;2.70;;;5.30;90.10;;;;;;5077080;28;20025;-74
2021/11/26 08:11:12;;;;;;;6.93;2.95;;;5.40;90.20;;;;;;5078347;28;20404;-75
2021/11/26 08:13:38;;;;;;;12.35;3.05;;;5.40;90.10;;;;;;5076288;28;20032;-74
2021/11/26 08:16:04;;;;;;;8.70;3.50;;;5.50;90.10;;;;;;5082544;28;20021;-74
2021/11/26 08:18:31;;;;;;;6.47;2.63;;;5.50;90.00;;;;;;5076777;28;20054;-74
2021/11/26 08:20:57;;;;;;;8.43;3.03;;;5.50;90.00;;;;;;5077870;28;20017;-75
2021/11/26 08:23:23;;;;;;;11.13;3.17;;;5.60;90.00;;;;;;5076320;28;20095;-74
2021/11/26 08:25:49;;;;;;;7.43;2.85;;;5.60;89.90;;;;;;5077629;28;20044;-74
2021/11/26 08:28:15;;;;;;;10.52;3.70;;;5.60;89.80;;;;;;5077475;28;20386;-74
2021/11/26 08:30:41;;;;;;;7.47;2.75;;;5.60;89.80;;;;;;5077908;28;20027;-74
2021/11/26 08:33:07;;;;;;;7.00;2.38;;;5.70;89.80;;;;;;5077407;28;20059;-74
2021/11/26 08:35:34;;;;;;;6.85;2.97;;;5.80;89.90;;;;;;5077721;28;20017;-74
2021/11/26 08:37:59;;;;;;;5.55;2.10;;;5.80;89.70;;;;;;5077371;28;20075;-74
2021/11/26 08:40:25;;;;;;;6.53;2.13;;;5.90;89.60;;;;;;5077661;28;20029;-75
2021/11/26 08:42:51;;;;;;;6.13;2.33;;;5.90;89.30;;;;;;5077220;28;20061;-74
2021/11/26 08:45:19;;;;;;;7.70;2.20;;;6.00;89.00;;;;;;5076409;28;20084;-74
2021/11/26 08:47:46;;;;;;;7.15;2.30;;;6.00;88.50;;;;;;5077611;28;20021;-74
2021/11/26 08:50:15;;;;;;;6.47;2.15;;;6.00;88.20;;;;;;5076405;28;20028;-74
2021/11/26 08:52:43;;;;;;;9.13;2.00;;;6.00;88.10;;;;;;5076676;28;20023;-74
2021/11/26 08:55:12;;;;;;;8.05;2.78;;;6.10;88.20;;;;;;5077548;28;20029;-74
2021/11/26 08:57:39;;;;;;;7.93;2.30;;;6.10;87.90;;;;;;5077087;28;20021;-74
2021/11/26 09:00:06;;;;;;;9.75;2.88;;;6.20;87.60;;;;;;5075770;28;20021;-74
2021/11/26 09:02:33;;;;;;;8.95;2.92;;;6.20;87.30;;;;;;5077115;28;20421;-74
2021/11/26 09:04:59;;;;;;;9.07;2.90;;;6.20;87.10;;;;;;5077504;28;20017;-74
2021/11/26 09:07:25;;;;;;;8.60;2.60;;;6.20;87.10;;;;;;5076919;28;20373;-74
2021/11/26 09:09:51;;;;;;;8.00;2.65;;;6.20;86.90;;;;;;5077312;28;20457;-74
2021/11/26 09:12:17;;;;;;;11.95;4.78;;;6.20;86.90;;;;;;5075562;28;20040;-74
2021/11/26 09:14:42;;;;;;;11.75;2.90;;;6.30;86.70;;;;;;5066078;28;20052;-75
2021/11/26 09:17:08;;;;;;;7.20;3.60;;;6.40;86.30;;;;;;5074617;28;20113;-72
2021/11/26 09:19:34;;;;;;;11.13;3.10;;;6.40;86.10;;;;;;5077012;28;20510;-72
2021/11/26 09:22:00;;;;;;;9.20;2.90;;;6.40;86.10;;;;;;5075433;28;20017;-72
2021/11/26 09:24:26;;;;;;;5.47;2.35;;;6.50;86.10;;;;;;5076989;28;20025;-74
2021/11/26 09:26:52;;;;;;;9.98;2.72;;;6.60;85.70;;;;;;5077247;28;20035;-73
2021/11/26 09:29:17;;;;;;;6.97;2.15;;;6.60;85.20;;;;;;5077010;28;20023;-74
2021/11/26 09:31:43;;;;;;;12.18;2.95;;;6.70;85.00;;;;;;5076843;28;20024;-72
2021/11/26 09:34:09;;;;;;;11.43;3.00;;;6.80;84.40;;;;;;5076642;28;20068;-72
2021/11/26 09:36:35;;;;;;;8.18;3.92;;;6.80;83.90;;;;;;5075310;28;20025;-72
2021/11/26 09:39:04;;;;;;;10.95;3.10;;;6.80;84.00;;;;;;5076553;28;20094;-74
2021/11/26 09:41:30;;;;;;;5.93;2.50;;;6.90;83.60;;;;;;5077021;28;20072;-75
2021/11/26 09:43:59;;;;;;;6.38;2.13;;;7.00;83.50;;;;;;5076659;28;20028;-75
2021/11/26 09:46:28;;;;;;;8.27;3.03;;;7.00;83.10;;;;;;5076769;28;20368;-75
2021/11/26 09:48:54;;;;;;;7.10;2.90;;;7.10;82.10;;;;;;5076628;28;20021;-75
2021/11/26 09:51:20;;;;;;;13.32;2.75;;;7.10;82.60;;;;;;5076544;28;20051;-75
2021/11/26 09:53:46;;;;;;;8.93;2.60;;;7.10;82.60;;;;;;5079724;28;20024;-75
2021/11/26 09:56:13;;;;;;;7.43;2.70;;;7.20;82.50;;;;;;5081171;28;20021;-75
2021/11/26 09:58:41;;;;;;;8.90;2.35;;;7.30;82.10;;;;;;5080839;28;20021;-74
2021/11/26 10:01:09;;;;;;;7.65;2.05;;;7.30;81.50;;;;;;5080846;28;20505;-74
2021/11/26 10:03:40;;;;;;;7.18;2.08;;;7.40;81.50;;;;;;5078985;28;20099;-74
2021/11/26 10:06:17;;;;;;;9.30;2.30;;;7.40;81.70;;;;;;5080817;28;20020;-74
2021/11/26 10:08:54;;;;;;;8.70;2.72;;;7.60;81.10;;;;;;5079053;28;20031;-74
2021/11/26 10:11:25;;;;;;;7.40;2.35;;;7.60;81.10;;;;;;5080635;28;20056;-74
2021/11/26 10:13:51;;;;;;;9.02;2.25;;;7.70;80.90;;;;;;5076365;28;20029;-75
2021/11/26 10:16:17;;;;;;;8.77;2.30;;;7.70;80.90;;;;;;5070985;28;20513;-72
2021/11/26 10:18:48;;;;;;;13.75;6.28;;;7.80;80.70;;;;;;5080411;28;20056;-73
2021/11/26 10:21:13;;;;;;;10.63;4.63;;;7.80;80.70;;;;;;5079886;28;20029;-74
2021/11/26 10:23:46;;;;;;;6.32;2.20;;;7.80;80.70;;;;;;5079112;28;20158;-74
2021/11/26 10:26:12;;;;;;;9.25;2.70;;;7.90;80.70;;;;;;5080349;28;20024;-73
2021/11/26 10:28:53;;;;;;;13.40;3.38;;;7.90;80.00;;;;;;5080397;28;20029;-74
2021/11/26 10:31:32;;;;;;;8.68;2.00;;;7.90;80.20;;;;;;5080335;28;20031;-73
2021/11/26 10:34:03;;;;;;;6.85;2.03;;;8.00;80.50;;;;;;5078942;28;20032;-74
2021/11/26 10:36:43;;;;;;;6.93;2.00;;;8.00;80.70;;;;;;5079641;28;20040;-73
2021/11/26 10:39:17;;;;;;;7.20;1.98;;;8.10;80.00;;;;;;5079326;28;20106;-73
2021/11/26 10:41:55;;;;;;;5.95;1.90;;;8.10;80.10;;;;;;5079875;28;20029;-73
2021/11/26 10:44:38;;;;;;;9.10;1.88;;;8.20;80.20;;;;;;5079600;28;20032;-74
2021/11/26 10:47:18;;;;;;;7.32;2.25;;;8.20;80.30;;;;;;5079915;28;20024;-73
2021/11/26 10:58:33;;;;;;;8.70;2.50;;;8.20;81.70;;;;;;5068299;28;20067;-73
2021/11/26 11:01:13;;;;;;;7.05;2.40;;;8.20;82.60;;;;;;5065938;28;20025;-73
2021/11/26 11:03:39;;;;;;;4.70;1.75;;;8.20;83.90;;;;;;5079679;28;20020;-73
2021/11/26 11:06:18;;;;;;;8.93;2.40;;;8.30;84.30;;;;;;5079100;28;20025;-73
2021/11/26 11:08:43;;;;;;;7.75;1.80;;;8.30;84.50;;;;;;5079460;28;20543;-73
2021/11/26 11:11:10;;;;;;;8.73;2.65;;;8.50;83.80;;;;;;5079315;28;20141;-73
2021/11/26 11:13:35;;;;;;;6.57;2.00;;;8.50;83.50;;;;;;5077215;28;20116;-73
2021/11/26 11:16:10;;;;;;;9.10;2.00;;;8.60;83.10;;;;;;5066604;28;20494;-73
2021/11/26 11:18:37;;;;;;;5.10;2.38;;;8.60;83.20;;;;;;5079558;28;20028;-73
2021/11/26 11:21:05;;;;;;;7.45;2.25;;;8.70;83.30;;;;;;5079120;28;20020;-73
2021/11/26 11:23:31;;;;;;;6.60;2.28;;;8.80;83.50;;;;;;5077937;28;20027;-73
2021/11/26 11:25:59;;;;;;;6.35;2.85;;;9.10;82.30;;;;;;5079288;28;20071;-73
2021/11/26 11:28:25;;;;;;;6.97;2.05;;;9.30;81.90;;;;;;5078861;28;20025;-73
2021/11/26 11:30:52;;;;;;;10.55;2.10;;;9.50;81.30;;;;;;5079155;28;20021;-73
2021/11/26 11:33:19;;;;;;;7.45;2.17;;;9.60;80.50;;;;;;5078767;28;20049;-73
2021/11/26 11:35:47;;;;;;;6.15;2.25;;;9.60;80.10;;;;;;5078993;28;20029;-73
2021/11/26 11:38:14;;;;;;;9.93;2.70;;;9.60;80.10;;;;;;5078248;28;20099;-73
2021/11/26 11:40:43;;;;;;;6.97;2.50;;;9.60;80.40;;;;;;5078901;28;20021;-73
2021/11/26 11:43:19;;;;;;;10.57;3.20;;;9.50;80.90;;;;;;5078700;28;20403;-73
2021/11/26 11:46:06;;;;;;;9.35;2.63;;;9.60;81.60;;;;;;5077511;28;20020;-72
2021/11/26 11:48:35;;;;;;;7.55;3.30;;;9.50;82.00;;;;;;5078671;28;20024;-72
2021/11/26 11:51:01;;;;;;;8.60;2.72;;;9.50;82.10;;;;;;5078830;28;20020;-72
2021/11/26 11:53:32;;;;;;;7.55;2.55;;;9.50;82.00;;;;;;5078500;28;20112;-73
2021/11/26 11:56:10;;;;;;;7.00;2.17;;;9.60;82.30;;;;;;5078746;28;20024;-72
2021/11/26 11:58:55;;;;;;;10.05;2.90;;;9.60;82.50;;;;;;5078812;28;20090;-71
2021/11/26 12:01:30;;;;;;;6.43;2.67;;;9.70;83.00;;;;;;5068048;28;20589;-72
2021/11/26 12:03:58;;;;;;;12.98;5.03;;;10.10;82.60;;;;;;5078471;28;20024;-73
2021/11/26 12:06:41;;;;;;;9.18;3.17;;;10.40;81.90;;;;;;5078516;28;20042;-72
2021/11/26 12:09:07;;;;;;;;;;;10.50;80.70;;;;;;5078755;28;20063;-72
2021/11/26 12:11:37;;;;;;;18.05;7.93;;;10.50;80.80;;;;;;5078527;28;19904;-73
2021/11/26 12:14:07;;;;;;;9.02;3.80;;;10.50;80.30;;;;;;5073196;28;20020;-73
2021/11/26 12:17:17;;;;;;;13.10;5.07;;;10.50;80.00;;;;;;5070256;28;20116;-73
2021/11/26 12:19:43;;;;;;;13.48;4.63;;;10.50;79.60;;;;;;5069790;28;20107;-73
2021/11/26 12:22:17;;;;;;;8.80;3.03;;;10.50;80.00;;;;;;5076492;28;20430;-71
2021/11/26 12:24:47;;;;;;;6.82;2.58;;;10.60;80.10;;;;;;5078162;28;20028;-69
2021/11/26 12:27:21;;;;;;;8.88;3.47;;;10.70;79.70;;;;;;5078488;28;20107;-71
2021/11/26 12:29:50;;;;;;;13.38;4.93;;;10.70;79.10;;;;;;5078154;28;20032;-73
2021/11/26 12:32:28;;;;;;;15.55;6.30;;;10.70;79.10;;;;;;5078040;28;20024;-70
2021/11/26 12:34:59;;;;;;;15.05;7.63;;;10.80;80.00;;;;;;5077931;28;20025;-70
2021/11/26 12:37:34;;;;;;;8.73;4.57;;;10.90;80.00;;;;;;5074410;28;20490;-70
2021/11/26 12:40:04;;;;;;;9.80;2.70;;;11.30;79.30;;;;;;5054613;28;20033;-71
2021/11/26 12:42:31;;;;;;;10.63;2.33;;;11.50;78.10;;;;;;5054131;28;20499;-72
2021/11/26 12:45:02;;;;;;;11.40;2.58;;;11.60;77.00;;;;;;5054447;28;20107;-70
2021/11/26 12:47:34;;;;;;;8.43;2.30;;;11.70;76.00;;;;;;5054218;28;20025;-69
2021/11/26 12:53:12;;;;;;;10.77;3.03;;;11.80;75.50;;;;;;5053432;28;20063;-68
2021/11/26 12:55:51;;;;;;;8.27;2.40;;;11.80;75.90;;;;;;5053984;28;20488;-68
2021/11/26 12:58:17;;;;;;;7.72;2.00;;;11.80;75.80;;;;;;5054474;28;20026;-68
2021/11/26 13:00:54;;;;;;;7.68;2.10;;;12.00;75.80;;;;;;5054040;28;20074;-68
2021/11/26 13:03:20;;;;;;;7.53;2.92;;;12.20;76.00;;;;;;5053823;28;20024;-68
2021/11/26 13:05:59;;;;;;;8.00;1.77;;;12.30;75.90;;;;;;5053820;28;20133;-69
2021/11/26 13:08:25;;;;;;;10.52;2.47;;;12.50;74.90;;;;;;5053658;28;20021;-68